Time;durP1;ratioP1;P1;durP2;ratioP2;P2;SDS_P1;SDS_P2;PMS_P1;PMS_P2;Temp;Humidity;BMP_temperature;BMP_pressure;BME280_temperature;BME280_humidity;BME280_pressure;Samples;Min_cycle;Max_cycle;Signal;HPM_P1;HPM_P2
2023/08/05 00:00:14;;;;;;;7.05;4.15;;;15.20;99.90;;;;;;4806516;29;20384;-51
2023/08/05 00:02:40;;;;;;;8.68;3.55;;;15.20;99.90;;;;;;4807426;29;20070;-51
2023/08/05 00:05:07;;;;;;;7.35;3.45;;;15.10;99.90;;;;;;4807353;29;20049;-49
2023/08/05 00:07:33;;;;;;;6.32;3.58;;;15.10;99.90;;;;;;4807335;29;20050;-47
2023/08/05 00:09:59;;;;;;;5.53;3.33;;;15.10;99.90;;;;;;4807345;29;20054;-48
2023/08/05 00:12:24;;;;;;;5.70;2.80;;;15.00;99.90;;;;;;4807076;29;20038;-49
2023/08/05 00:14:50;;;;;;;7.75;3.00;;;15.00;99.90;;;;;;4805691;29;20050;-50
2023/08/05 00:17:16;;;;;;;4.50;2.75;;;14.90;99.90;;;;;;4805189;29;20044;-52
2023/08/05 00:19:43;;;;;;;6.35;2.40;;;14.90;99.90;;;;;;4805658;29;20046;-49
2023/08/05 00:22:09;;;;;;;4.70;2.67;;;14.80;99.90;;;;;;4820676;29;20118;-50
2023/08/05 00:24:35;;;;;;;4.63;2.80;;;14.80;99.90;;;;;;4806645;29;20047;-50
2023/08/05 00:27:01;;;;;;;7.57;2.90;;;14.70;99.90;;;;;;4806663;29;20089;-51
2023/08/05 00:29:26;;;;;;;5.15;2.70;;;14.70;99.90;;;;;;4806612;29;20155;-50
2023/08/05 00:31:52;;;;;;;6.35;3.08;;;14.60;99.90;;;;;;4805945;29;20049;-49
2023/08/05 00:34:18;;;;;;;4.55;2.30;;;14.60;99.90;;;;;;4806816;29;20050;-52
2023/08/05 00:36:43;;;;;;;4.50;2.35;;;14.60;99.90;;;;;;4806727;29;20066;-53
2023/08/05 00:39:09;;;;;;;6.82;3.05;;;14.60;99.90;;;;;;4806270;29;20081;-52
2023/08/05 00:41:35;;;;;;;7.13;3.25;;;14.60;99.90;;;;;;4806629;29;20050;-49
2023/08/05 00:44:00;;;;;;;6.60;3.80;;;14.60;99.90;;;;;;4806521;29;20051;-48
2023/08/05 00:46:26;;;;;;;5.65;3.75;;;14.60;99.90;;;;;;4806445;29;20564;-53
2023/08/05 00:48:52;;;;;;;5.60;3.47;;;14.50;99.90;;;;;;4806596;29;20035;-49
2023/08/05 00:51:20;;;;;;;7.03;4.20;;;14.50;99.90;;;;;;4806618;29;20046;-50
2023/08/05 00:53:48;;;;;;;6.72;4.25;;;14.50;99.90;;;;;;4805235;29;20506;-51
2023/08/05 00:56:15;;;;;;;6.50;4.15;;;14.40;99.90;;;;;;4806156;29;20034;-47
2023/08/05 00:58:43;;;;;;;7.55;3.97;;;14.50;99.90;;;;;;4805015;29;20035;-49
2023/08/05 01:01:10;;;;;;;7.32;4.10;;;14.50;99.90;;;;;;4805960;29;20057;-50
2023/08/05 01:03:36;;;;;;;6.95;4.22;;;14.50;99.90;;;;;;4806451;29;20547;-48
2023/08/05 01:06:04;;;;;;;6.95;3.33;;;14.40;99.90;;;;;;4805282;29;20361;-51
2023/08/05 01:08:30;;;;;;;12.02;4.90;;;14.40;99.90;;;;;;4806298;29;20126;-48
2023/08/05 01:10:56;;;;;;;8.05;4.80;;;14.40;99.90;;;;;;4805632;29;20109;-51
2023/08/05 01:13:22;;;;;;;8.35;4.72;;;14.50;99.90;;;;;;4800603;29;20047;-50
2023/08/05 01:15:47;;;;;;;9.43;5.60;;;14.50;99.90;;;;;;4804151;29;20039;-50
2023/08/05 01:18:17;;;;;;;7.07;5.20;;;14.40;99.90;;;;;;4803210;29;20051;-49
2023/08/05 01:20:48;;;;;;;9.13;5.15;;;14.40;99.90;;;;;;4804102;29;20104;-50
2023/08/05 01:23:20;;;;;;;9.57;5.60;;;14.50;99.90;;;;;;4804246;29;20046;-49
2023/08/05 01:25:46;;;;;;;10.35;5.40;;;14.50;99.90;;;;;;4803641;29;20120;-50
2023/08/05 01:28:14;;;;;;;9.30;5.07;;;14.50;99.90;;;;;;4802898;29;20042;-50
2023/08/05 01:30:42;;;;;;;8.38;5.18;;;14.50;99.90;;;;;;4816801;29;20050;-52
2023/08/05 01:33:08;;;;;;;8.68;4.15;;;14.60;99.90;;;;;;4804105;29;20046;-50
2023/08/05 01:35:34;;;;;;;8.45;5.70;;;14.50;99.90;;;;;;4801982;29;20054;-50
2023/08/05 01:38:00;;;;;;;9.63;5.50;;;14.60;99.90;;;;;;4803995;29;20047;-53
2023/08/05 01:40:28;;;;;;;8.43;5.18;;;14.70;99.90;;;;;;4803823;29;20156;-49
2023/08/05 01:42:57;;;;;;;9.10;5.50;;;14.70;99.90;;;;;;4803745;29;20124;-51
2023/08/05 01:45:23;;;;;;;8.68;5.38;;;14.70;99.90;;;;;;4803487;29;21045;-49
2023/08/05 01:47:49;;;;;;;9.85;5.50;;;14.60;99.90;;;;;;4803582;29;20130;-49
2023/08/05 01:50:15;;;;;;;11.10;5.88;;;14.70;99.90;;;;;;4802761;29;20579;-52
2023/08/05 01:52:40;;;;;;;9.98;5.82;;;14.70;99.90;;;;;;4803230;29;20078;-49
2023/08/05 01:55:06;;;;;;;10.93;6.45;;;14.70;99.90;;;;;;4802750;29;20049;-47
2023/08/05 01:57:32;;;;;;;10.75;6.15;;;14.70;99.90;;;;;;4805196;29;20430;-50
2023/08/05 01:59:58;;;;;;;9.75;5.57;;;14.70;99.90;;;;;;4804740;29;20035;-47
2023/08/05 02:02:23;;;;;;;10.75;4.85;;;14.70;99.90;;;;;;4804222;29;20073;-53
2023/08/05 02:04:49;;;;;;;9.75;4.50;;;14.60;99.90;;;;;;4805135;29;20038;-50
2023/08/05 02:07:15;;;;;;;8.65;5.80;;;14.60;99.90;;;;;;4804207;29;20121;-50
2023/08/05 02:09:40;;;;;;;9.90;6.10;;;14.60;99.90;;;;;;4805085;29;20057;-47
2023/08/05 02:12:06;;;;;;;8.40;5.93;;;14.70;99.90;;;;;;4804887;29;20069;-51
2023/08/05 02:14:32;;;;;;;8.45;5.78;;;14.70;99.90;;;;;;4804663;29;20047;-50
2023/08/05 02:16:58;;;;;;;8.35;5.70;;;14.70;99.90;;;;;;4804687;29;20078;-50
2023/08/05 02:19:23;;;;;;;9.60;6.53;;;14.70;99.90;;;;;;4804720;29;20062;-49
2023/08/05 02:21:49;;;;;;;8.27;5.70;;;14.70;99.90;;;;;;4804926;29;20054;-50
2023/08/05 02:24:15;;;;;;;9.50;5.95;;;14.70;99.90;;;;;;4802302;29;20043;-51
2023/08/05 02:26:41;;;;;;;11.02;5.43;;;14.70;99.90;;;;;;4804972;29;20046;-52
2023/08/05 02:29:07;;;;;;;8.57;5.40;;;14.70;99.90;;;;;;4804504;29;20051;-51
2023/08/05 02:31:33;;;;;;;9.65;6.50;;;14.70;99.90;;;;;;4804411;29;20043;-51
2023/08/05 02:33:59;;;;;;;11.05;6.40;;;14.70;99.90;;;;;;4804743;29;20621;-52
2023/08/05 02:36:24;;;;;;;8.70;6.03;;;14.70;99.90;;;;;;4804552;29;20055;-52
2023/08/05 02:38:50;;;;;;;9.35;6.05;;;14.70;99.90;;;;;;4804705;29;20125;-48
2023/08/05 02:41:16;;;;;;;9.00;6.38;;;14.70;99.90;;;;;;4802589;29;20054;-52
2023/08/05 02:43:42;;;;;;;9.85;5.82;;;14.70;99.90;;;;;;4804732;29;20043;-49
2023/08/05 02:46:07;;;;;;;11.25;6.63;;;14.70;99.90;;;;;;4787622;29;20115;-50
2023/08/05 02:48:33;;;;;;;12.25;7.00;;;14.80;99.90;;;;;;4803574;29;20122;-50
2023/08/05 02:50:59;;;;;;;8.55;6.25;;;14.70;99.90;;;;;;4804174;29;20118;-48
2023/08/05 02:53:25;;;;;;;11.75;6.68;;;14.70;99.90;;;;;;4803001;29;20043;-51
2023/08/05 02:55:51;;;;;;;8.70;6.15;;;14.70;99.90;;;;;;4804421;29;20046;-52
2023/08/05 02:58:17;;;;;;;11.27;5.03;;;14.80;99.90;;;;;;4804054;29;20061;-51
2023/08/05 03:00:43;;;;;;;10.13;6.10;;;14.70;99.90;;;;;;4803856;29;20459;-48
2023/08/05 03:03:10;;;;;;;12.65;5.53;;;14.70;99.90;;;;;;4804031;29;20043;-51
2023/08/05 03:05:36;;;;;;;10.13;6.75;;;14.80;99.90;;;;;;4804499;29;20035;-49
2023/08/05 03:08:02;;;;;;;10.63;6.38;;;14.70;99.90;;;;;;4804488;29;20109;-48
2023/08/05 03:10:28;;;;;;;10.20;6.05;;;14.80;99.90;;;;;;4802893;29;20043;-48
2023/08/05 03:12:53;;;;;;;9.80;6.15;;;14.70;99.90;;;;;;4804308;29;20448;-50
2023/08/05 03:15:19;;;;;;;7.97;5.68;;;14.70;99.90;;;;;;4804378;29;20047;-47
2023/08/05 03:17:45;;;;;;;9.82;5.60;;;14.80;99.90;;;;;;4803959;29;20445;-51
2023/08/05 03:20:27;;;;;;;8.40;5.28;;;14.80;99.90;;;;;;4803841;29;20046;-48
2023/08/05 03:22:54;;;;;;;9.55;5.32;;;14.80;99.90;;;;;;4803799;29;20100;-52
2023/08/05 03:25:21;;;;;;;8.70;5.22;;;14.90;99.90;;;;;;4802934;29;20121;-51
2023/08/05 03:27:50;;;;;;;8.25;5.28;;;14.90;99.90;;;;;;4803593;29;20047;-50
2023/08/05 03:30:17;;;;;;;9.35;5.10;;;14.90;99.90;;;;;;4803029;29;20153;-53
2023/08/05 03:32:43;;;;;;;10.45;5.65;;;14.90;99.90;;;;;;4802388;29;20054;-47
2023/08/05 03:35:09;;;;;;;9.85;5.68;;;14.90;99.90;;;;;;4802754;29;20069;-52
2023/08/05 03:37:34;;;;;;;10.73;6.15;;;14.90;99.90;;;;;;4802792;29;20039;-47
2023/08/05 03:40:00;;;;;;;8.68;4.63;;;14.90;99.90;;;;;;4802141;29;20070;-51
2023/08/05 03:42:26;;;;;;;9.25;5.78;;;14.80;99.90;;;;;;4803699;29;20045;-51
2023/08/05 03:44:51;;;;;;;10.27;6.03;;;14.80;99.90;;;;;;4803886;29;20034;-52
2023/08/05 03:47:17;;;;;;;9.18;5.97;;;14.80;99.90;;;;;;4803973;29;20430;-50
2023/08/05 03:49:43;;;;;;;8.40;5.38;;;14.90;99.90;;;;;;4802588;29;20550;-49
2023/08/05 03:52:09;;;;;;;9.27;5.93;;;14.90;99.90;;;;;;4802540;29;20078;-51
2023/08/05 03:54:34;;;;;;;8.85;4.05;;;14.90;99.90;;;;;;4803964;29;20042;-51
2023/08/05 03:57:02;;;;;;;11.93;4.85;;;14.90;99.90;;;;;;4803679;29;20053;-49
2023/08/05 03:59:28;;;;;;;9.25;5.70;;;14.90;99.90;;;;;;4800963;29;20079;-50
2023/08/05 04:01:54;;;;;;;10.65;5.43;;;14.90;99.90;;;;;;4802976;29;20074;-49
2023/08/05 04:04:19;;;;;;;7.82;5.57;;;14.90;99.90;;;;;;4803498;29;20246;-52
2023/08/05 04:06:45;;;;;;;9.90;5.22;;;15.00;99.90;;;;;;4803549;29;20039;-50
2023/08/05 04:09:13;;;;;;;8.43;5.47;;;14.90;99.90;;;;;;4803915;29;20090;-50
2023/08/05 04:11:39;;;;;;;9.55;5.70;;;14.90;99.90;;;;;;4803705;29;20051;-48
2023/08/05 04:14:06;;;;;;;6.88;5.32;;;14.90;99.90;;;;;;4803806;29;20452;-51
2023/08/05 04:16:31;;;;;;;8.65;5.50;;;15.00;99.90;;;;;;4803240;29;20055;-51
2023/08/05 04:18:58;;;;;;;9.75;5.97;;;15.00;99.90;;;;;;4803406;29;20034;-49
2023/08/05 04:21:28;;;;;;;12.10;4.60;;;15.00;99.90;;;;;;4803232;29;20161;-49
2023/08/05 04:23:54;;;;;;;6.72;4.90;;;14.90;99.90;;;;;;4786900;29;20035;-52
2023/08/05 04:26:20;;;;;;;8.15;5.30;;;14.90;99.90;;;;;;4803593;29;20046;-47
2023/08/05 04:28:46;;;;;;;9.02;5.78;;;15.00;99.90;;;;;;4803667;29;20388;-52
2023/08/05 04:31:13;;;;;;;8.38;5.15;;;14.90;99.90;;;;;;4803747;29;20043;-49
2023/08/05 04:33:39;;;;;;;9.60;5.72;;;15.00;99.90;;;;;;4807076;29;20092;-51
2023/08/05 04:36:05;;;;;;;8.77;5.65;;;15.00;99.90;;;;;;4806627;29;20081;-49
2023/08/05 04:38:30;;;;;;;9.27;5.22;;;15.10;99.90;;;;;;4806345;29;20078;-51
2023/08/05 04:40:58;;;;;;;11.32;4.88;;;15.10;99.90;;;;;;4806339;29;20111;-49
2023/08/05 04:43:24;;;;;;;9.10;5.88;;;15.10;99.90;;;;;;4806400;29;20449;-53
2023/08/05 04:45:54;;;;;;;12.52;6.90;;;15.10;99.90;;;;;;4805235;29;20039;-49
2023/08/05 04:48:19;;;;;;;12.63;5.80;;;15.10;99.90;;;;;;4806579;29;20051;-51
2023/08/05 04:50:45;;;;;;;9.80;6.00;;;15.20;99.90;;;;;;4806654;29;20039;-52
2023/08/05 04:53:14;;;;;;;10.52;5.78;;;15.20;99.90;;;;;;4806064;29;20397;-48
2023/08/05 04:55:40;;;;;;;9.88;5.43;;;15.20;99.90;;;;;;4805851;29;20123;-49
2023/08/05 04:58:06;;;;;;;9.32;6.13;;;15.20;99.90;;;;;;4805602;29;20047;-51
2023/08/05 05:00:31;;;;;;;10.48;6.25;;;15.30;99.90;;;;;;4805676;29;20153;-51
2023/08/05 05:02:57;;;;;;;10.30;6.22;;;15.40;99.90;;;;;;4806375;29;20096;-51
2023/08/05 05:05:23;;;;;;;9.02;5.60;;;15.40;99.90;;;;;;4806082;29;20043;-49
2023/08/05 05:07:49;;;;;;;10.48;6.80;;;15.30;99.90;;;;;;4804977;29;20122;-50
2023/08/05 05:10:15;;;;;;;10.73;5.78;;;15.40;99.90;;;;;;4805675;29;20515;-51
2023/08/05 05:12:40;;;;;;;10.68;5.97;;;15.40;99.90;;;;;;4803281;29;20399;-47
2023/08/05 05:15:06;;;;;;;11.20;5.60;;;15.40;99.90;;;;;;4806124;29;20043;-50
2023/08/05 05:17:36;;;;;;;9.57;5.90;;;15.30;99.90;;;;;;4805461;29;20053;-51
2023/08/05 05:20:04;;;;;;;10.35;5.70;;;15.40;99.90;;;;;;4805599;29;20039;-51
2023/08/05 05:22:30;;;;;;;9.70;4.97;;;15.30;99.90;;;;;;4805554;29;20047;-51
2023/08/05 05:24:56;;;;;;;9.27;5.70;;;15.30;99.90;;;;;;4805850;29;20071;-53
2023/08/05 05:27:22;;;;;;;8.45;5.75;;;15.40;99.90;;;;;;4805564;29;20085;-50
2023/08/05 05:29:47;;;;;;;8.77;6.00;;;15.30;99.90;;;;;;4805603;29;20585;-51
2023/08/05 05:32:13;;;;;;;10.00;6.22;;;15.40;99.90;;;;;;4805198;29;20043;-51
2023/08/05 05:34:39;;;;;;;9.90;5.28;;;15.40;99.90;;;;;;4804266;29;20054;-52
2023/08/05 05:37:05;;;;;;;10.00;6.00;;;15.50;99.90;;;;;;4805166;29;20547;-51
2023/08/05 05:39:30;;;;;;;12.40;4.97;;;15.60;99.90;;;;;;4805414;29;20055;-50
2023/08/05 05:41:56;;;;;;;8.23;5.63;;;15.60;99.90;;;;;;4804577;29;20059;-53
2023/08/05 05:44:22;;;;;;;10.80;5.15;;;15.60;99.90;;;;;;4805669;29;20039;-48
2023/08/05 05:46:48;;;;;;;8.27;5.72;;;15.60;99.90;;;;;;4805150;29;20058;-52
2023/08/05 05:49:18;;;;;;;10.27;4.57;;;15.70;99.90;;;;;;4803822;29;20051;-50
2023/08/05 05:51:45;;;;;;;9.95;5.40;;;15.70;99.90;;;;;;4804699;29;20472;-50
2023/08/05 05:54:12;;;;;;;10.85;6.10;;;15.70;99.90;;;;;;4804647;29;20043;-54
2023/08/05 05:56:37;;;;;;;9.88;6.20;;;15.70;99.90;;;;;;4805272;29;20043;-50
2023/08/05 05:59:03;;;;;;;11.18;6.43;;;15.80;99.90;;;;;;4803937;29;20373;-53
2023/08/05 06:01:29;;;;;;;9.48;5.57;;;15.80;99.90;;;;;;4804819;29;20125;-51
2023/08/05 06:03:55;;;;;;;10.73;6.10;;;15.70;99.90;;;;;;4805060;29;20099;-51
2023/08/05 06:06:20;;;;;;;9.85;5.57;;;15.80;99.90;;;;;;4804955;29;20169;-50
2023/08/05 06:08:46;;;;;;;10.45;6.00;;;15.70;99.90;;;;;;4803480;29;20047;-51
2023/08/05 06:11:12;;;;;;;10.55;6.30;;;15.70;99.90;;;;;;4805031;29;20039;-49
2023/08/05 06:13:37;;;;;;;11.60;5.40;;;15.80;99.90;;;;;;4804138;29;20043;-48
2023/08/05 06:16:04;;;;;;;10.80;6.22;;;15.70;99.90;;;;;;4805031;29;20460;-51
2023/08/05 06:18:30;;;;;;;9.48;6.10;;;15.80;99.90;;;;;;4804800;29;20043;-51
2023/08/05 06:20:55;;;;;;;9.40;6.68;;;15.70;99.90;;;;;;4804976;29;20100;-48
2023/08/05 06:23:24;;;;;;;12.43;6.53;;;15.70;99.90;;;;;;4803417;29;20047;-50
2023/08/05 06:25:50;;;;;;;10.85;5.22;;;15.60;99.90;;;;;;4804393;29;20411;-49
2023/08/05 06:28:15;;;;;;;10.98;6.53;;;15.60;99.90;;;;;;4804832;29;20059;-50
2023/08/05 06:30:47;;;;;;;9.82;6.82;;;15.60;99.90;;;;;;4803996;29;20586;-50
2023/08/05 06:33:13;;;;;;;10.73;6.47;;;15.70;99.90;;;;;;4804508;29;20449;-52
2023/08/05 06:35:42;;;;;;;9.05;6.50;;;15.70;99.90;;;;;;4804331;29;20034;-50
2023/08/05 06:38:08;;;;;;;11.27;6.25;;;15.80;99.90;;;;;;4803403;29;20054;-48
2023/08/05 06:40:33;;;;;;;8.98;5.03;;;15.80;99.90;;;;;;4803926;29;20054;-51
2023/08/05 06:42:59;;;;;;;9.73;5.57;;;16.00;99.90;;;;;;4804263;29;20089;-50
2023/08/05 06:45:25;;;;;;;12.13;5.40;;;15.90;99.90;;;;;;4804501;29;20043;-51
2023/08/05 06:47:50;;;;;;;9.07;5.18;;;16.00;99.90;;;;;;4804496;29;20054;-49
2023/08/05 06:50:16;;;;;;;9.68;5.93;;;16.00;99.90;;;;;;4804244;29;20078;-51
2023/08/05 06:52:42;;;;;;;10.52;5.43;;;16.10;99.90;;;;;;4804558;29;20046;-48
2023/08/05 06:55:08;;;;;;;9.35;5.20;;;16.20;99.90;;;;;;4803877;29;20049;-50
2023/08/05 06:57:34;;;;;;;9.80;4.88;;;16.20;99.90;;;;;;4801733;29;20442;-52
2023/08/05 07:00:00;;;;;;;8.48;4.13;;;16.30;99.90;;;;;;4803964;29;20404;-51
2023/08/05 07:02:26;;;;;;;8.13;4.53;;;16.30;99.90;;;;;;4802582;29;20049;-52
2023/08/05 07:04:53;;;;;;;6.95;4.53;;;16.30;99.90;;;;;;4802932;29;20437;-52
2023/08/05 07:07:19;;;;;;;6.57;4.47;;;16.30;99.90;;;;;;4803326;29;20043;-51
2023/08/05 07:09:45;;;;;;;8.52;4.47;;;16.40;99.90;;;;;;4803597;29;20130;-52
2023/08/05 07:12:11;;;;;;;6.47;3.97;;;16.50;99.90;;;;;;4803907;29;20201;-49
2023/08/05 07:14:36;;;;;;;6.38;3.95;;;16.50;99.90;;;;;;4804291;29;20051;-54
2023/08/05 07:17:02;;;;;;;7.47;3.33;;;16.50;99.90;;;;;;4804028;29;20554;-51
2023/08/05 07:19:28;;;;;;;7.95;3.97;;;16.50;99.90;;;;;;4803957;29;20449;-48
2023/08/05 07:21:54;;;;;;;6.70;3.80;;;16.50;99.90;;;;;;4803046;29;20042;-51
2023/08/05 07:24:20;;;;;;;5.18;3.00;;;16.60;99.90;;;;;;4804150;29;20117;-50
2023/08/05 07:26:45;;;;;;;6.90;3.30;;;16.60;99.90;;;;;;4803949;29;20047;-50
2023/08/05 07:29:11;;;;;;;7.10;3.40;;;16.70;99.90;;;;;;4802570;29;20543;-49
2023/08/05 07:31:37;;;;;;;6.68;3.85;;;16.80;99.90;;;;;;4803277;29;20058;-50
2023/08/05 07:34:04;;;;;;;7.38;4.10;;;16.80;99.90;;;;;;4787783;29;20051;-50
2023/08/05 07:36:31;;;;;;;7.18;3.25;;;16.80;99.90;;;;;;4803011;29;20066;-51
2023/08/05 07:38:58;;;;;;;7.13;3.97;;;16.90;99.90;;;;;;4802033;29;20067;-49
2023/08/05 07:41:26;;;;;;;9.70;4.55;;;17.00;99.90;;;;;;4803438;29;20101;-47
2023/08/05 07:43:57;;;;;;;6.88;3.55;;;17.10;99.90;;;;;;4802433;29;20039;-52
2023/08/05 07:46:25;;;;;;;8.13;3.85;;;17.10;99.90;;;;;;4803622;29;20082;-52
2023/08/05 07:48:52;;;;;;;7.68;3.67;;;17.20;99.90;;;;;;4802769;29;20053;-51
2023/08/05 07:51:19;;;;;;;7.20;3.70;;;17.30;99.90;;;;;;4802594;29;20042;-49
2023/08/05 07:53:48;;;;;;;8.00;3.60;;;17.40;99.90;;;;;;4802957;29;20035;-52
2023/08/05 07:56:15;;;;;;;6.25;3.53;;;17.40;99.90;;;;;;4790045;29;20504;-50
2023/08/05 07:58:44;;;;;;;7.35;3.70;;;17.50;99.90;;;;;;4784852;29;20142;-51
2023/08/05 08:01:12;;;;;;;7.35;3.60;;;17.50;99.90;;;;;;4786823;29;20492;-52
2023/08/05 08:03:38;;;;;;;6.63;3.05;;;17.60;99.90;;;;;;4789595;29;20051;-50
2023/08/05 08:06:04;;;;;;;5.70;2.85;;;17.70;99.90;;;;;;4790631;29;20051;-51
2023/08/05 08:08:29;;;;;;;7.55;2.53;;;17.70;99.90;;;;;;4793409;29;20047;-51
2023/08/05 08:10:55;;;;;;;6.43;2.60;;;17.70;99.90;;;;;;4793603;29;20042;-49
2023/08/05 08:13:21;;;;;;;6.53;2.80;;;17.80;99.90;;;;;;4792735;29;20406;-51
2023/08/05 08:15:46;;;;;;;6.55;2.83;;;17.70;99.90;;;;;;4795572;29;20090;-50
2023/08/05 08:18:12;;;;;;;6.40;2.90;;;17.80;99.90;;;;;;4792770;29;20856;-51
2023/08/05 08:20:38;;;;;;;7.55;2.70;;;17.80;99.90;;;;;;4805301;29;20066;-50
2023/08/05 08:23:04;;;;;;;6.60;2.95;;;17.80;99.90;;;;;;4794725;29;20046;-53
2023/08/05 08:25:29;;;;;;;6.93;3.00;;;17.80;99.90;;;;;;4798233;29;20122;-51
2023/08/05 08:27:55;;;;;;;5.82;3.00;;;17.80;99.90;;;;;;4791185;29;20068;-49
2023/08/05 08:30:21;;;;;;;11.55;3.38;;;17.90;99.90;;;;;;4789011;29;20133;-51
2023/08/05 08:32:46;;;;;;;8.38;3.00;;;18.00;99.90;;;;;;4789887;29;20047;-49
2023/08/05 08:35:12;;;;;;;5.53;2.40;;;18.00;99.90;;;;;;4790608;29;20554;-51
2023/08/05 08:37:38;;;;;;;5.93;2.45;;;18.00;99.90;;;;;;4791351;29;20066;-51
2023/08/05 08:40:04;;;;;;;5.30;2.60;;;18.10;99.90;;;;;;4791035;29;20062;-51
2023/08/05 08:42:31;;;;;;;5.93;2.53;;;18.20;99.90;;;;;;4792774;29;20085;-49
2023/08/05 08:45:00;;;;;;;6.65;2.75;;;18.30;99.90;;;;;;4793270;29;20360;-54
2023/08/05 08:47:27;;;;;;;6.85;2.90;;;18.40;99.90;;;;;;4788097;29;20069;-49
2023/08/05 08:49:54;;;;;;;6.55;2.85;;;18.40;99.90;;;;;;4808116;29;20122;-48
2023/08/05 08:52:20;;;;;;;6.07;3.38;;;18.40;99.90;;;;;;4801172;29;20061;-51
2023/08/05 08:54:50;;;;;;;7.63;2.83;;;18.50;99.90;;;;;;4804626;29;20097;-51
2023/08/05 08:57:16;;;;;;;7.07;2.88;;;18.60;99.90;;;;;;4803789;29;20057;-49
2023/08/05 08:59:42;;;;;;;6.40;3.22;;;18.60;99.90;;;;;;4804983;29;20047;-48
2023/08/05 09:02:12;;;;;;;7.35;3.63;;;18.70;99.90;;;;;;4805674;29;20038;-50
2023/08/05 09:04:42;;;;;;;6.32;3.50;;;18.80;99.90;;;;;;4804908;29;20548;-51
2023/08/05 09:07:09;;;;;;;8.27;3.67;;;18.80;99.90;;;;;;4806117;29;20046;-51
2023/08/05 09:09:35;;;;;;;7.70;3.72;;;18.90;99.90;;;;;;4804762;29;20054;-50
2023/08/05 09:12:02;;;;;;;8.20;3.60;;;18.90;99.90;;;;;;4803798;29;20055;-52
2023/08/05 09:14:28;;;;;;;5.72;3.17;;;19.00;99.90;;;;;;4804431;29;20396;-51
2023/08/05 09:17:00;;;;;;;9.13;3.50;;;19.00;99.90;;;;;;4805864;29;20050;-51
2023/08/05 09:19:29;;;;;;;10.93;3.70;;;19.00;99.90;;;;;;4806033;29;20043;-51
2023/08/05 09:21:55;;;;;;;6.57;3.45;;;19.00;99.90;;;;;;4805888;29;20403;-51
2023/08/05 09:24:25;;;;;;;5.35;3.28;;;19.10;99.90;;;;;;4805737;29;20051;-51
2023/08/05 09:26:56;;;;;;;6.93;3.38;;;19.20;99.90;;;;;;4806060;29;20137;-50
2023/08/05 09:29:22;;;;;;;6.68;3.42;;;19.50;99.90;;;;;;4819643;29;20104;-48
2023/08/05 09:32:14;;;;;;;7.13;3.75;;;19.70;99.90;;;;;;4805471;29;20078;-47
2023/08/05 09:34:45;;;;;;;8.10;3.90;;;19.90;99.90;;;;;;4800086;29;20057;-48
2023/08/05 09:37:13;;;;;;;8.77;3.67;;;19.80;99.90;;;;;;4803979;29;20572;-52
2023/08/05 09:39:47;;;;;;;7.55;3.63;;;19.70;99.90;;;;;;4799397;29;20051;-50
2023/08/05 09:42:24;;;;;;;7.75;4.10;;;19.60;99.90;;;;;;4804625;29;20118;-49
2023/08/05 09:44:57;;;;;;;6.82;4.05;;;19.70;99.90;;;;;;4802304;29;20107;-50
2023/08/05 09:47:28;;;;;;;7.13;3.67;;;19.80;99.90;;;;;;4803249;29;20096;-50
2023/08/05 09:49:56;;;;;;;7.82;3.75;;;19.80;99.90;;;;;;4804161;29;20042;-51
2023/08/05 09:52:23;;;;;;;6.43;3.67;;;19.90;99.90;;;;;;4804346;29;20054;-53
2023/08/05 09:55:13;;;;;;;7.40;3.90;;;20.00;99.90;;;;;;4803896;29;20051;-51
2023/08/05 09:57:43;;;;;;;9.98;4.60;;;20.10;99.90;;;;;;4800520;29;20059;-52
2023/08/05 10:00:11;;;;;;;7.72;4.38;;;20.00;99.90;;;;;;4800221;29;20125;-51
2023/08/05 10:02:44;;;;;;;7.80;4.20;;;20.00;99.90;;;;;;4814206;29;20505;-51
2023/08/05 10:05:12;;;;;;;8.25;3.92;;;20.10;99.90;;;;;;4801165;29;20035;-53
2023/08/05 10:07:40;;;;;;;7.20;4.13;;;20.10;99.90;;;;;;4803815;29;20051;-52
2023/08/05 10:10:13;;;;;;;7.50;4.32;;;20.10;99.90;;;;;;4801921;29;20123;-53
2023/08/05 10:12:49;;;;;;;7.18;3.85;;;20.30;99.90;;;;;;4803338;29;20129;-51
2023/08/05 10:15:43;;;;;;;8.80;4.03;;;20.40;99.90;;;;;;4803374;29;20095;-49
2023/08/05 10:18:09;;;;;;;;;;;20.50;99.90;;;;;;4797752;29;20066;-53
2023/08/05 10:20:36;;;;;;;5.85;4.00;;;20.50;99.90;;;;;;4803401;29;19970;-53
2023/08/05 10:23:10;;;;;;;8.10;3.90;;;20.50;99.90;;;;;;4803081;29;20042;-48
2023/08/05 10:25:41;;;;;;;4.88;2.72;;;20.60;99.90;;;;;;4803561;29;20042;-51
2023/08/05 10:28:08;;;;;;;5.35;3.40;;;20.60;99.90;;;;;;4801810;29;20503;-49
2023/08/05 10:30:44;;;;;;;5.43;3.63;;;20.70;99.90;;;;;;4802563;29;20039;-50
2023/08/05 10:33:10;;;;;;;6.00;3.50;;;20.80;99.90;;;;;;4801221;29;20078;-52
2023/08/05 10:35:40;;;;;;;8.63;3.92;;;20.80;99.90;;;;;;4785713;29;20050;-53
2023/08/05 10:38:10;;;;;;;6.25;3.63;;;20.90;99.90;;;;;;4803128;29;20046;-52
2023/08/05 10:40:41;;;;;;;6.70;3.85;;;21.00;99.90;;;;;;4815843;29;20111;-51
2023/08/05 10:43:08;;;;;;;6.22;3.60;;;21.20;99.90;;;;;;4802599;29;20058;-49
2023/08/05 10:45:35;;;;;;;7.55;3.80;;;21.30;99.90;;;;;;4801948;29;20065;-53
2023/08/05 10:48:09;;;;;;;7.78;4.47;;;21.50;99.90;;;;;;4802472;29;20042;-51
2023/08/05 10:50:37;;;;;;;6.43;3.75;;;21.60;99.90;;;;;;4800987;29;20051;-53
2023/08/05 10:53:12;;;;;;;7.20;3.45;;;21.70;99.90;;;;;;4802799;29;20503;-54
2023/08/05 10:55:49;;;;;;;7.43;4.38;;;21.80;99.90;;;;;;4802311;29;20046;-52
2023/08/05 10:58:20;;;;;;;7.68;4.20;;;21.90;99.90;;;;;;4802373;29;20054;-50
2023/08/05 11:00:57;;;;;;;6.68;3.42;;;21.80;99.90;;;;;;4802050;29;20049;-52
2023/08/05 11:03:25;;;;;;;6.47;3.75;;;21.70;99.90;;;;;;4802033;29;20127;-49
2023/08/05 11:05:54;;;;;;;4.72;3.25;;;21.60;99.90;;;;;;4802819;29;20047;-50
2023/08/05 11:08:22;;;;;;;6.45;3.55;;;21.50;99.90;;;;;;4800938;29;20058;-51
2023/08/05 11:10:49;;;;;;;5.95;2.70;;;21.30;99.90;;;;;;4816205;29;20059;-51
2023/08/05 11:13:16;;;;;;;5.18;2.42;;;21.20;99.90;;;;;;4802586;29;20047;-53
2023/08/05 11:15:42;;;;;;;6.65;3.03;;;21.30;99.90;;;;;;4800133;29;20054;-51
2023/08/05 11:18:08;;;;;;;7.10;3.33;;;21.30;99.90;;;;;;4801760;29;20054;-48
2023/08/05 11:20:35;;;;;;;4.47;2.20;;;21.40;99.90;;;;;;4801829;29;20395;-53
2023/08/05 11:23:01;;;;;;;5.15;2.38;;;21.60;99.90;;;;;;4802654;29;20046;-52
2023/08/05 11:25:28;;;;;;;6.32;2.13;;;21.60;99.90;;;;;;4800764;29;20039;-50
2023/08/05 11:27:55;;;;;;;4.45;2.17;;;21.70;99.90;;;;;;4802888;29;20119;-50
2023/08/05 11:30:21;;;;;;;4.95;2.28;;;21.70;99.90;;;;;;4798615;29;20063;-51
2023/08/05 11:32:57;;;;;;;3.75;2.20;;;21.80;99.90;;;;;;4802850;29;20431;-50
2023/08/05 11:35:24;;;;;;;4.68;2.20;;;22.00;99.90;;;;;;4803534;29;20042;-52
2023/08/05 11:37:50;;;;;;;3.20;1.63;;;22.10;99.90;;;;;;4802267;29;20892;-52
2023/08/05 11:40:16;;;;;;;3.47;1.70;;;22.20;99.90;;;;;;4803960;29;20084;-52
2023/08/05 11:42:42;;;;;;;3.55;1.98;;;22.20;99.90;;;;;;4807876;29;20499;-49
2023/08/05 11:45:12;;;;;;;3.90;1.85;;;22.20;99.90;;;;;;4806530;29;20082;-51
2023/08/05 11:47:39;;;;;;;3.70;2.00;;;22.20;99.90;;;;;;4805460;29;20054;-50
2023/08/05 11:50:09;;;;;;;3.95;1.90;;;22.20;99.90;;;;;;4807161;29;20043;-50
2023/08/05 11:52:35;;;;;;;4.82;1.92;;;22.20;99.90;;;;;;4804916;29;20110;-53
2023/08/05 11:55:03;;;;;;;3.60;1.70;;;22.20;99.90;;;;;;4802001;29;20046;-52
2023/08/05 11:57:29;;;;;;;3.78;1.85;;;22.20;99.90;;;;;;4803215;29;20046;-50
2023/08/05 11:59:57;;;;;;;4.75;2.00;;;22.20;99.90;;;;;;4804063;29;20516;-52
2023/08/05 12:02:27;;;;;;;4.00;2.13;;;22.30;99.90;;;;;;4806298;29;20039;-52
2023/08/05 12:04:59;;;;;;;4.53;2.22;;;22.40;99.90;;;;;;4803292;29;20047;-51
2023/08/05 12:07:24;;;;;;;3.83;2.10;;;22.50;99.90;;;;;;4803727;29;20047;-50
2023/08/05 12:10:11;;;;;;;4.55;1.92;;;22.50;99.90;;;;;;4805967;29;20138;-53
2023/08/05 12:12:38;;;;;;;6.70;2.10;;;22.50;99.90;;;;;;4806617;29;20039;-51
2023/08/05 12:15:14;;;;;;;5.10;2.10;;;22.50;99.90;;;;;;4804480;29;20046;-51
2023/08/05 12:17:46;;;;;;;3.65;1.80;;;22.50;99.90;;;;;;4803897;29;20058;-53
2023/08/05 12:20:15;;;;;;;4.82;1.90;;;22.40;99.90;;;;;;4805581;29;20108;-48
2023/08/05 12:22:41;;;;;;;4.10;1.80;;;22.30;99.90;;;;;;4807352;29;20066;-47
2023/08/05 12:25:07;;;;;;;3.90;1.80;;;22.20;99.90;;;;;;4806965;29;20039;-52
2023/08/05 12:27:33;;;;;;;2.85;1.58;;;22.20;99.90;;;;;;4806758;29;20042;-49
2023/08/05 12:29:59;;;;;;;3.90;1.60;;;22.10;99.90;;;;;;4799764;29;20050;-49
2023/08/05 12:32:24;;;;;;;2.97;1.40;;;22.00;99.90;;;;;;4795987;29;20047;-52
2023/08/05 12:34:50;;;;;;;3.30;1.45;;;21.90;99.90;;;;;;4804302;29;20130;-52
2023/08/05 12:37:16;;;;;;;3.35;1.67;;;21.90;99.90;;;;;;4799069;29;20487;-49
2023/08/05 12:39:42;;;;;;;3.60;1.90;;;21.80;99.90;;;;;;4804219;29;20051;-53
2023/08/05 12:42:09;;;;;;;3.30;1.90;;;21.80;99.90;;;;;;4802800;29;20487;-51
2023/08/05 12:44:34;;;;;;;3.78;1.85;;;21.70;99.90;;;;;;4804697;29;20038;-52